Mari Lampton — WDE3648 — position and weather

sailwx.info

Track history (hours):
 
Tides and Currents Weather Stations Pressure Air Temp Water Temp Dewpoint Dewpoint Depression Visibility Wind Speed Wind Dir Waves Ship Positions

Mari Lampton

Owner: MAgnolia Marine Transport Company, Vicksburg, MS. More information available from US FCC via Universal Licensing System and Coast Guard Vessel Documentation Center.

Last reported at 2016-Jul-21 03:18 UTC. Time now 2016-Aug-31 00:27 UTC.
Position N 31°54' W 091°12'.
Warning: this ship's position is 40 days out of date.

Length 34 m.

Type: Towing. MMSI: 367342210.

Date/timePositionNaut miles runAvg speedWind from/ knotsBaromVisibWave heightAir tempDewpointWater temp
2016-Jul-21 03:18N 31°54' W 091°12'8 7.4
2016-Jul-21 02:15N 31°60' W 091°05'6 7.5
2016-Jul-21 01:30N 32°05' W 091°05'6 6.0
2016-Jul-21 00:33N 32°09' W 091°00'9 8.6
2016-Jul-20 23:33N 32°17' W 090°56'2 1.5
2016-Jul-20 22:33N 32°18' W 090°55'0 0.0
2016-Jul-20 21:33N 32°18' W 090°55'0 0.3
2016-Jul-20 20:33N 32°18' W 090°55'4 3.7
2016-Jul-20 19:33N 32°22' W 090°53'2 1.8
2016-Jul-20 18:33N 32°23' W 090°54'1 1.1
2016-Jul-20 17:33N 32°23' W 090°53'0 0.0
2016-Jul-20 16:33N 32°23' W 090°53'0 0.0
2016-Jul-20 15:33N 32°23' W 090°53'0 0.0
2016-Jul-20 14:33N 32°23' W 090°53'0 0.0
2016-Jul-20 13:33N 32°23' W 090°53'0 0.0
2016-Jul-20 12:33N 32°23' W 090°53'0 0.0
2016-Jul-20 11:33N 32°23' W 090°53'0 0.0
2016-Jul-20 10:34N 32°23' W 090°53'0 0.0
2016-Jul-20 09:34N 32°23' W 090°53'0 0.0
2016-Jul-20 08:33N 32°23' W 090°53'0 0.0
2016-Jul-20 07:33N 32°23' W 090°53'0 0.0
2016-Jul-20 06:34N 32°23' W 090°53'0 0.0
2016-Jul-20 05:33N 32°23' W 090°53'0 0.0
2016-Jul-20 04:32N 32°23' W 090°53'0 0.0
2016-Jul-20 03:30N 32°23' W 090°53'0 0.0
2016-Jul-20 02:33N 32°23' W 090°53'0 0.0
2016-Jul-20 01:33N 32°23' W 090°53'0 0.0
2016-Jul-20 00:34N 32°23' W 090°53'0 0.0
2016-Jul-19 23:34N 32°23' W 090°53'0 0.0
2016-Jul-19 22:33N 32°23' W 090°53'0 0.0
2016-Jul-19 21:33N 32°23' W 090°53'0 0.0
2016-Jul-19 20:33N 32°23' W 090°53'0 0.0
2016-Jul-19 19:33N 32°23' W 090°53'0 0.0
2016-Jul-19 18:33N 32°23' W 090°53'0 0.0
2016-Jul-19 17:33N 32°23' W 090°53'0 0.0
2016-Jul-19 16:33N 32°23' W 090°53'0 0.0
2016-Jul-19 15:33N 32°23' W 090°53'0 0.0
2016-Jul-19 14:33N 32°23' W 090°53'0 0.0
2016-Jul-19 13:33N 32°23' W 090°53'0 0.0
2016-Jul-19 12:34N 32°23' W 090°53'0 0.0
2016-Jul-19 11:33N 32°23' W 090°53'0 0.0
2016-Jul-19 10:34N 32°23' W 090°53'0 0.0
2016-Jul-19 09:33N 32°23' W 090°53'0 0.0
2016-Jul-19 08:34N 32°23' W 090°53'0 0.0
2016-Jul-19 07:33N 32°23' W 090°53'0 0.0
2016-Jul-19 04:32N 32°23' W 090°53'0 0.0
2016-Jul-19 03:33N 32°23' W 090°53'0 0.0
2016-Jul-19 02:33N 32°23' W 090°53'0 0.0
2016-Jul-19 01:33N 32°23' W 090°53'0 0.0
2016-Jul-19 00:33N 32°23' W 090°53'0 0.0
2016-Jul-18 23:33N 32°23' W 090°53'0 0.0
2016-Jul-18 22:32N 32°23' W 090°53'0 0.0
2016-Jul-18 21:33N 32°23' W 090°53'0 0.0
2016-Jul-18 20:33N 32°23' W 090°53'1 1.0
2016-Jul-18 19:34N 32°22' W 090°53'1 1.4
2016-Jul-18 18:34N 32°21' W 090°53'2 1.7
2016-Jul-18 17:33N 32°21' W 090°55'9 9.2
2016-Jul-18 16:33N 32°26' W 091°04'  
Track history (hours):
 
Tides and Currents Weather Stations Pressure Air Temp Water Temp Dewpoint Dewpoint Depression Visibility Wind Speed Wind Dir Waves Ship Positions

Mari Lampton

Owner: MAgnolia Marine Transport Company, Vicksburg, MS. More information available from US FCC via Universal Licensing System and Coast Guard Vessel Documentation Center.

Last reported at 2016-Jul-21 03:18 UTC. Time now 2016-Aug-31 00:27 UTC.
Position N 31°54' W 091°12'.
Warning: this ship's position is 40 days out of date.

Length 34 m.

Type: Towing. MMSI: 367342210.

Date/timePositionNaut miles runAvg speedWind from/ knotsBaromVisibWave heightAir tempDewpointWater temp
2016-Jul-21 03:18N 31°54' W 091°12'8 7.4
2016-Jul-21 02:15N 31°60' W 091°05'6 7.5
2016-Jul-21 01:30N 32°05' W 091°05'6 6.0
2016-Jul-21 00:33N 32°09' W 091°00'9 8.6
2016-Jul-20 23:33N 32°17' W 090°56'2 1.5
2016-Jul-20 22:33N 32°18' W 090°55'0 0.0
2016-Jul-20 21:33N 32°18' W 090°55'0 0.3
2016-Jul-20 20:33N 32°18' W 090°55'4 3.7
2016-Jul-20 19:33N 32°22' W 090°53'2 1.8
2016-Jul-20 18:33N 32°23' W 090°54'1 1.1
2016-Jul-20 17:33N 32°23' W 090°53'0 0.0
2016-Jul-20 16:33N 32°23' W 090°53'0 0.0
2016-Jul-20 15:33N 32°23' W 090°53'0 0.0
2016-Jul-20 14:33N 32°23' W 090°53'0 0.0
2016-Jul-20 13:33N 32°23' W 090°53'0 0.0
2016-Jul-20 12:33N 32°23' W 090°53'0 0.0
2016-Jul-20 11:33N 32°23' W 090°53'0 0.0
2016-Jul-20 10:34N 32°23' W 090°53'0 0.0
2016-Jul-20 09:34N 32°23' W 090°53'0 0.0
2016-Jul-20 08:33N 32°23' W 090°53'0 0.0
2016-Jul-20 07:33N 32°23' W 090°53'0 0.0
2016-Jul-20 06:34N 32°23' W 090°53'0 0.0
2016-Jul-20 05:33N 32°23' W 090°53'0 0.0
2016-Jul-20 04:32N 32°23' W 090°53'0 0.0
2016-Jul-20 03:30N 32°23' W 090°53'0 0.0
2016-Jul-20 02:33N 32°23' W 090°53'0 0.0
2016-Jul-20 01:33N 32°23' W 090°53'0 0.0
2016-Jul-20 00:34N 32°23' W 090°53'0 0.0
2016-Jul-19 23:34N 32°23' W 090°53'0 0.0
2016-Jul-19 22:33N 32°23' W 090°53'0 0.0
2016-Jul-19 21:33N 32°23' W 090°53'0 0.0
2016-Jul-19 20:33N 32°23' W 090°53'0 0.0
2016-Jul-19 19:33N 32°23' W 090°53'0 0.0
2016-Jul-19 18:33N 32°23' W 090°53'0 0.0
2016-Jul-19 17:33N 32°23' W 090°53'0 0.0
2016-Jul-19 16:33N 32°23' W 090°53'0 0.0
2016-Jul-19 15:33N 32°23' W 090°53'0 0.0
2016-Jul-19 14:33N 32°23' W 090°53'0 0.0
2016-Jul-19 13:33N 32°23' W 090°53'0 0.0
2016-Jul-19 12:34N 32°23' W 090°53'0 0.0
2016-Jul-19 11:33N 32°23' W 090°53'0 0.0
2016-Jul-19 10:34N 32°23' W 090°53'0 0.0
2016-Jul-19 09:33N 32°23' W 090°53'0 0.0
2016-Jul-19 08:34N 32°23' W 090°53'0 0.0
2016-Jul-19 07:33N 32°23' W 090°53'0 0.0
2016-Jul-19 04:32N 32°23' W 090°53'0 0.0
2016-Jul-19 03:33N 32°23' W 090°53'0 0.0
2016-Jul-19 02:33N 32°23' W 090°53'0 0.0
2016-Jul-19 01:33N 32°23' W 090°53'0 0.0
2016-Jul-19 00:33N 32°23' W 090°53'0 0.0
2016-Jul-18 23:33N 32°23' W 090°53'0 0.0
2016-Jul-18 22:32N 32°23' W 090°53'0 0.0
2016-Jul-18 21:33N 32°23' W 090°53'0 0.0
2016-Jul-18 20:33N 32°23' W 090°53'1 1.0
2016-Jul-18 19:34N 32°22' W 090°53'1 1.4
2016-Jul-18 18:34N 32°21' W 090°53'2 1.7
2016-Jul-18 17:33N 32°21' W 090°55'9 9.2
2016-Jul-18 16:33N 32°26' W 091°04'  

Dump ship's entire track history